sensor_id;sensor_type;location;lat;lon;timestamp;P1;durP1;ratioP1;P2;durP2;ratioP2
29500;SDS011;16450;50.288;10.966;2024-01-25T00:01:02;20.90;;;3.43;;
29500;SDS011;16450;50.288;10.966;2024-01-25T00:04:04;18.77;;;3.47;;
29500;SDS011;16450;50.288;10.966;2024-01-25T00:07:09;19.73;;;3.63;;
29500;SDS011;16450;50.288;10.966;2024-01-25T00:10:12;19.77;;;3.67;;
29500;SDS011;16450;50.288;10.966;2024-01-25T00:13:14;19.33;;;3.77;;
29500;SDS011;16450;50.288;10.966;2024-01-25T00:16:16;23.17;;;3.47;;
29500;SDS011;16450;50.288;10.966;2024-01-25T00:19:18;17.40;;;2.97;;
29500;SDS011;16450;50.288;10.966;2024-01-25T00:22:20;16.70;;;3.50;;
29500;SDS011;16450;50.288;10.966;2024-01-25T00:25:22;18.00;;;3.67;;
29500;SDS011;16450;50.288;10.966;2024-01-25T00:28:25;15.67;;;3.50;;
29500;SDS011;16450;50.288;10.966;2024-01-25T00:31:27;29.30;;;3.70;;
29500;SDS011;16450;50.288;10.966;2024-01-25T00:34:29;22.03;;;3.47;;
29500;SDS011;16450;50.288;10.966;2024-01-25T00:37:31;27.97;;;3.67;;
29500;SDS011;16450;50.288;10.966;2024-01-25T00:40:33;23.23;;;3.67;;
29500;SDS011;16450;50.288;10.966;2024-01-25T00:43:36;22.00;;;3.67;;
29500;SDS011;16450;50.288;10.966;2024-01-25T00:46:38;26.23;;;3.80;;
29500;SDS011;16450;50.288;10.966;2024-01-25T00:49:40;23.87;;;3.77;;
29500;SDS011;16450;50.288;10.966;2024-01-25T00:52:45;23.50;;;4.27;;
29500;SDS011;16450;50.288;10.966;2024-01-25T00:55:47;24.70;;;3.63;;
29500;SDS011;16450;50.288;10.966;2024-01-25T00:58:49;25.83;;;3.83;;
29500;SDS011;16450;50.288;10.966;2024-01-25T01:01:52;26.57;;;3.70;;
29500;SDS011;16450;50.288;10.966;2024-01-25T01:04:59;23.17;;;3.47;;
29500;SDS011;16450;50.288;10.966;2024-01-25T01:08:03;18.93;;;3.67;;
29500;SDS011;16450;50.288;10.966;2024-01-25T01:11:07;20.73;;;3.67;;
29500;SDS011;16450;50.288;10.966;2024-01-25T01:14:08;21.20;;;4.10;;
29500;SDS011;16450;50.288;10.966;2024-01-25T01:17:10;23.07;;;3.90;;
29500;SDS011;16450;50.288;10.966;2024-01-25T01:20:12;33.30;;;4.50;;
29500;SDS011;16450;50.288;10.966;2024-01-25T01:23:15;22.50;;;3.80;;
29500;SDS011;16450;50.288;10.966;2024-01-25T01:26:16;22.80;;;3.93;;
29500;SDS011;16450;50.288;10.966;2024-01-25T01:29:18;25.03;;;3.83;;
29500;SDS011;16450;50.288;10.966;2024-01-25T01:32:20;21.67;;;4.53;;
29500;SDS011;16450;50.288;10.966;2024-01-25T01:35:23;26.50;;;3.93;;
29500;SDS011;16450;50.288;10.966;2024-01-25T01:38:25;17.40;;;3.40;;
29500;SDS011;16450;50.288;10.966;2024-01-25T01:41:27;31.57;;;4.67;;
29500;SDS011;16450;50.288;10.966;2024-01-25T01:44:29;29.50;;;4.23;;
29500;SDS011;16450;50.288;10.966;2024-01-25T01:47:31;29.77;;;4.30;;
29500;SDS011;16450;50.288;10.966;2024-01-25T01:50:33;24.57;;;3.87;;
29500;SDS011;16450;50.288;10.966;2024-01-25T01:53:35;26.37;;;3.80;;
29500;SDS011;16450;50.288;10.966;2024-01-25T01:56:37;25.30;;;3.80;;
29500;SDS011;16450;50.288;10.966;2024-01-25T01:59:41;29.97;;;4.13;;
29500;SDS011;16450;50.288;10.966;2024-01-25T02:02:43;21.10;;;3.77;;
29500;SDS011;16450;50.288;10.966;2024-01-25T02:05:46;26.87;;;4.13;;
29500;SDS011;16450;50.288;10.966;2024-01-25T02:08:48;30.53;;;4.30;;
29500;SDS011;16450;50.288;10.966;2024-01-25T02:11:58;26.00;;;4.10;;
29500;SDS011;16450;50.288;10.966;2024-01-25T02:15:02;22.77;;;4.00;;
29500;SDS011;16450;50.288;10.966;2024-01-25T02:18:04;25.33;;;4.70;;
29500;SDS011;16450;50.288;10.966;2024-01-25T02:21:07;19.80;;;3.73;;
29500;SDS011;16450;50.288;10.966;2024-01-25T02:24:09;25.63;;;4.37;;
29500;SDS011;16450;50.288;10.966;2024-01-25T02:27:11;26.23;;;4.57;;
29500;SDS011;16450;50.288;10.966;2024-01-25T02:30:13;28.27;;;4.03;;
29500;SDS011;16450;50.288;10.966;2024-01-25T02:33:15;30.27;;;4.13;;
29500;SDS011;16450;50.288;10.966;2024-01-25T02:36:17;28.73;;;4.43;;
29500;SDS011;16450;50.288;10.966;2024-01-25T02:39:19;27.10;;;4.23;;
29500;SDS011;16450;50.288;10.966;2024-01-25T02:42:21;26.13;;;4.20;;
29500;SDS011;16450;50.288;10.966;2024-01-25T02:45:23;22.20;;;4.30;;
29500;SDS011;16450;50.288;10.966;2024-01-25T02:48:25;27.70;;;4.57;;
29500;SDS011;16450;50.288;10.966;2024-01-25T02:51:27;25.20;;;3.87;;
29500;SDS011;16450;50.288;10.966;2024-01-25T02:54:29;27.20;;;4.20;;
29500;SDS011;16450;50.288;10.966;2024-01-25T02:57:31;27.07;;;4.63;;
29500;SDS011;16450;50.288;10.966;2024-01-25T03:00:33;22.27;;;4.60;;
29500;SDS011;16450;50.288;10.966;2024-01-25T03:03:35;26.50;;;4.20;;
29500;SDS011;16450;50.288;10.966;2024-01-25T03:06:38;20.97;;;4.07;;
29500;SDS011;16450;50.288;10.966;2024-01-25T03:09:40;23.63;;;4.90;;
29500;SDS011;16450;50.288;10.966;2024-01-25T03:12:41;27.93;;;4.30;;
29500;SDS011;16450;50.288;10.966;2024-01-25T03:15:44;22.37;;;4.53;;
29500;SDS011;16450;50.288;10.966;2024-01-25T03:18:46;25.83;;;4.87;;
29500;SDS011;16450;50.288;10.966;2024-01-25T03:21:48;25.77;;;4.73;;
29500;SDS011;16450;50.288;10.966;2024-01-25T03:24:51;26.40;;;5.27;;
29500;SDS011;16450;50.288;10.966;2024-01-25T03:27:52;25.60;;;4.47;;
29500;SDS011;16450;50.288;10.966;2024-01-25T03:30:54;33.23;;;5.37;;
29500;SDS011;16450;50.288;10.966;2024-01-25T03:33:56;25.87;;;4.77;;
29500;SDS011;16450;50.288;10.966;2024-01-25T03:36:58;23.70;;;4.77;;
29500;SDS011;16450;50.288;10.966;2024-01-25T03:40:00;24.87;;;5.20;;
29500;SDS011;16450;50.288;10.966;2024-01-25T03:43:03;30.53;;;4.90;;
29500;SDS011;16450;50.288;10.966;2024-01-25T03:46:19;22.40;;;4.70;;
29500;SDS011;16450;50.288;10.966;2024-01-25T03:49:21;25.73;;;4.80;;
29500;SDS011;16450;50.288;10.966;2024-01-25T03:52:24;22.30;;;4.60;;
29500;SDS011;16450;50.288;10.966;2024-01-25T03:55:27;27.07;;;4.67;;
29500;SDS011;16450;50.288;10.966;2024-01-25T03:58:29;32.13;;;5.07;;
29500;SDS011;16450;50.288;10.966;2024-01-25T04:01:31;26.77;;;4.90;;
29500;SDS011;16450;50.288;10.966;2024-01-25T04:04:33;25.60;;;4.70;;
29500;SDS011;16450;50.288;10.966;2024-01-25T04:07:35;20.73;;;4.77;;
29500;SDS011;16450;50.288;10.966;2024-01-25T04:10:37;23.47;;;4.77;;
29500;SDS011;16450;50.288;10.966;2024-01-25T04:13:40;22.53;;;5.37;;
29500;SDS011;16450;50.288;10.966;2024-01-25T04:16:41;29.93;;;6.13;;
29500;SDS011;16450;50.288;10.966;2024-01-25T04:19:44;29.07;;;5.80;;
29500;SDS011;16450;50.288;10.966;2024-01-25T04:22:48;34.27;;;5.93;;
29500;SDS011;16450;50.288;10.966;2024-01-25T04:25:50;25.13;;;4.60;;
29500;SDS011;16450;50.288;10.966;2024-01-25T04:28:52;27.43;;;5.30;;
29500;SDS011;16450;50.288;10.966;2024-01-25T04:31:54;23.07;;;5.23;;
29500;SDS011;16450;50.288;10.966;2024-01-25T04:34:56;26.30;;;5.07;;
29500;SDS011;16450;50.288;10.966;2024-01-25T04:37:58;26.90;;;5.83;;
29500;SDS011;16450;50.288;10.966;2024-01-25T04:41:00;29.57;;;4.97;;
29500;SDS011;16450;50.288;10.966;2024-01-25T04:44:02;22.57;;;5.50;;
29500;SDS011;16450;50.288;10.966;2024-01-25T04:47:04;22.43;;;5.30;;
29500;SDS011;16450;50.288;10.966;2024-01-25T04:50:06;27.10;;;5.83;;
29500;SDS011;16450;50.288;10.966;2024-01-25T04:53:08;22.00;;;5.10;;
29500;SDS011;16450;50.288;10.966;2024-01-25T04:56:10;26.47;;;5.30;;
29500;SDS011;16450;50.288;10.966;2024-01-25T04:59:11;26.40;;;5.73;;
29500;SDS011;16450;50.288;10.966;2024-01-25T05:02:13;24.30;;;5.80;;
29500;SDS011;16450;50.288;10.966;2024-01-25T05:05:15;24.07;;;5.37;;
29500;SDS011;16450;50.288;10.966;2024-01-25T05:08:17;29.17;;;5.57;;
29500;SDS011;16450;50.288;10.966;2024-01-25T05:11:20;24.43;;;4.73;;
29500;SDS011;16450;50.288;10.966;2024-01-25T05:14:21;23.07;;;4.70;;
29500;SDS011;16450;50.288;10.966;2024-01-25T05:17:23;21.53;;;5.23;;
29500;SDS011;16450;50.288;10.966;2024-01-25T05:20:25;23.87;;;5.07;;
29500;SDS011;16450;50.288;10.966;2024-01-25T05:23:33;23.73;;;5.70;;
29500;SDS011;16450;50.288;10.966;2024-01-25T05:26:35;27.87;;;5.20;;
29500;SDS011;16450;50.288;10.966;2024-01-25T05:29:37;21.60;;;5.07;;
29500;SDS011;16450;50.288;10.966;2024-01-25T05:32:39;29.57;;;6.03;;
29500;SDS011;16450;50.288;10.966;2024-01-25T05:35:41;25.23;;;6.10;;
29500;SDS011;16450;50.288;10.966;2024-01-25T05:38:43;20.90;;;5.67;;
29500;SDS011;16450;50.288;10.966;2024-01-25T05:41:45;29.10;;;5.53;;
29500;SDS011;16450;50.288;10.966;2024-01-25T05:44:47;20.87;;;4.67;;
29500;SDS011;16450;50.288;10.966;2024-01-25T05:47:49;22.47;;;5.23;;
29500;SDS011;16450;50.288;10.966;2024-01-25T05:50:52;26.37;;;5.27;;
29500;SDS011;16450;50.288;10.966;2024-01-25T05:53:53;20.07;;;5.33;;
29500;SDS011;16450;50.288;10.966;2024-01-25T05:56:55;26.57;;;5.33;;
29500;SDS011;16450;50.288;10.966;2024-01-25T05:59:57;25.93;;;6.00;;
29500;SDS011;16450;50.288;10.966;2024-01-25T06:02:59;20.87;;;4.97;;
29500;SDS011;16450;50.288;10.966;2024-01-25T06:06:01;24.80;;;5.97;;
29500;SDS011;16450;50.288;10.966;2024-01-25T06:09:04;27.80;;;5.57;;
29500;SDS011;16450;50.288;10.966;2024-01-25T06:12:14;25.80;;;5.63;;
29500;SDS011;16450;50.288;10.966;2024-01-25T06:15:16;26.20;;;6.03;;
29500;SDS011;16450;50.288;10.966;2024-01-25T06:18:18;24.07;;;5.60;;
29500;SDS011;16450;50.288;10.966;2024-01-25T06:21:22;22.07;;;6.20;;
29500;SDS011;16450;50.288;10.966;2024-01-25T06:24:24;24.03;;;5.93;;
29500;SDS011;16450;50.288;10.966;2024-01-25T06:27:26;21.17;;;5.60;;
29500;SDS011;16450;50.288;10.966;2024-01-25T06:30:28;21.73;;;5.47;;
29500;SDS011;16450;50.288;10.966;2024-01-25T06:33:29;21.73;;;5.60;;
29500;SDS011;16450;50.288;10.966;2024-01-25T06:36:31;22.03;;;5.30;;
29500;SDS011;16450;50.288;10.966;2024-01-25T06:39:34;25.10;;;5.37;;
29500;SDS011;16450;50.288;10.966;2024-01-25T06:42:36;26.10;;;5.20;;
29500;SDS011;16450;50.288;10.966;2024-01-25T06:45:38;27.50;;;5.90;;
29500;SDS011;16450;50.288;10.966;2024-01-25T06:48:41;23.73;;;5.60;;
29500;SDS011;16450;50.288;10.966;2024-01-25T06:51:45;24.70;;;5.63;;
29500;SDS011;16450;50.288;10.966;2024-01-25T06:54:47;20.60;;;5.93;;
29500;SDS011;16450;50.288;10.966;2024-01-25T06:57:49;23.90;;;5.50;;
29500;SDS011;16450;50.288;10.966;2024-01-25T07:00:51;30.00;;;6.00;;
29500;SDS011;16450;50.288;10.966;2024-01-25T07:03:54;25.03;;;6.03;;
29500;SDS011;16450;50.288;10.966;2024-01-25T07:06:56;16.13;;;5.37;;
29500;SDS011;16450;50.288;10.966;2024-01-25T07:10:00;21.60;;;5.47;;
29500;SDS011;16450;50.288;10.966;2024-01-25T07:13:02;23.00;;;4.73;;
29500;SDS011;16450;50.288;10.966;2024-01-25T07:16:05;24.60;;;5.57;;
29500;SDS011;16450;50.288;10.966;2024-01-25T07:19:07;19.27;;;5.07;;
29500;SDS011;16450;50.288;10.966;2024-01-25T07:22:09;23.57;;;5.10;;
29500;SDS011;16450;50.288;10.966;2024-01-25T07:25:13;21.57;;;5.47;;
29500;SDS011;16450;50.288;10.966;2024-01-25T07:28:18;30.03;;;5.73;;
29500;SDS011;16450;50.288;10.966;2024-01-25T07:31:20;22.40;;;5.87;;
29500;SDS011;16450;50.288;10.966;2024-01-25T07:34:23;22.33;;;5.40;;
29500;SDS011;16450;50.288;10.966;2024-01-25T07:37:25;22.50;;;5.77;;
29500;SDS011;16450;50.288;10.966;2024-01-25T07:40:27;22.00;;;5.77;;
29500;SDS011;16450;50.288;10.966;2024-01-25T07:43:29;19.97;;;5.07;;
29500;SDS011;16450;50.288;10.966;2024-01-25T07:46:31;25.53;;;5.07;;
29500;SDS011;16450;50.288;10.966;2024-01-25T07:49:33;19.13;;;5.33;;
29500;SDS011;16450;50.288;10.966;2024-01-25T07:52:35;23.43;;;5.07;;
29500;SDS011;16450;50.288;10.966;2024-01-25T07:55:37;22.53;;;5.20;;
29500;SDS011;16450;50.288;10.966;2024-01-25T07:58:39;26.80;;;5.27;;
29500;SDS011;16450;50.288;10.966;2024-01-25T08:01:41;26.60;;;5.30;;
29500;SDS011;16450;50.288;10.966;2024-01-25T08:04:44;20.07;;;4.90;;
29500;SDS011;16450;50.288;10.966;2024-01-25T08:07:46;17.67;;;4.83;;
29500;SDS011;16450;50.288;10.966;2024-01-25T08:10:48;21.03;;;5.30;;
29500;SDS011;16450;50.288;10.966;2024-01-25T08:13:51;20.63;;;5.43;;
29500;SDS011;16450;50.288;10.966;2024-01-25T08:16:53;22.87;;;5.17;;
29500;SDS011;16450;50.288;10.966;2024-01-25T08:19:56;18.93;;;5.30;;
29500;SDS011;16450;50.288;10.966;2024-01-25T08:22:58;20.57;;;6.17;;
29500;SDS011;16450;50.288;10.966;2024-01-25T08:26:00;22.93;;;4.83;;
29500;SDS011;16450;50.288;10.966;2024-01-25T08:29:02;21.20;;;5.43;;
29500;SDS011;16450;50.288;10.966;2024-01-25T08:32:04;27.17;;;5.57;;
29500;SDS011;16450;50.288;10.966;2024-01-25T08:35:07;17.63;;;4.73;;
29500;SDS011;16450;50.288;10.966;2024-01-25T08:38:09;25.47;;;5.30;;
29500;SDS011;16450;50.288;10.966;2024-01-25T08:41:12;16.97;;;4.63;;
29500;SDS011;16450;50.288;10.966;2024-01-25T08:44:16;24.03;;;5.17;;
29500;SDS011;16450;50.288;10.966;2024-01-25T08:47:18;17.97;;;4.67;;
29500;SDS011;16450;50.288;10.966;2024-01-25T08:50:21;22.43;;;5.07;;
29500;SDS011;16450;50.288;10.966;2024-01-25T08:53:25;23.30;;;5.03;;
29500;SDS011;16450;50.288;10.966;2024-01-25T08:56:30;20.13;;;4.73;;
29500;SDS011;16450;50.288;10.966;2024-01-25T08:59:33;18.67;;;5.23;;
29500;SDS011;16450;50.288;10.966;2024-01-25T09:02:38;19.70;;;4.70;;
29500;SDS011;16450;50.288;10.966;2024-01-25T09:05:40;25.37;;;5.50;;
29500;SDS011;16450;50.288;10.966;2024-01-25T09:08:46;19.27;;;5.47;;
29500;SDS011;16450;50.288;10.966;2024-01-25T09:11:48;28.10;;;5.10;;
29500;SDS011;16450;50.288;10.966;2024-01-25T09:14:51;27.87;;;5.60;;
29500;SDS011;16450;50.288;10.966;2024-01-25T09:17:53;19.00;;;4.53;;
29500;SDS011;16450;50.288;10.966;2024-01-25T09:20:55;20.50;;;4.83;;
29500;SDS011;16450;50.288;10.966;2024-01-25T09:23:57;24.43;;;5.17;;
29500;SDS011;16450;50.288;10.966;2024-01-25T09:27:01;25.10;;;5.00;;
29500;SDS011;16450;50.288;10.966;2024-01-25T09:30:04;22.50;;;5.50;;
29500;SDS011;16450;50.288;10.966;2024-01-25T09:33:07;21.80;;;4.80;;
29500;SDS011;16450;50.288;10.966;2024-01-25T09:36:09;23.50;;;4.93;;
29500;SDS011;16450;50.288;10.966;2024-01-25T09:39:11;26.00;;;5.27;;
29500;SDS011;16450;50.288;10.966;2024-01-25T09:42:15;25.10;;;5.17;;
29500;SDS011;16450;50.288;10.966;2024-01-25T09:45:17;24.87;;;4.73;;
29500;SDS011;16450;50.288;10.966;2024-01-25T09:48:20;18.60;;;4.30;;
29500;SDS011;16450;50.288;10.966;2024-01-25T09:51:23;18.77;;;4.87;;
29500;SDS011;16450;50.288;10.966;2024-01-25T09:54:24;19.47;;;4.43;;
29500;SDS011;16450;50.288;10.966;2024-01-25T09:57:29;18.93;;;4.57;;
29500;SDS011;16450;50.288;10.966;2024-01-25T10:00:32;19.97;;;4.20;;
29500;SDS011;16450;50.288;10.966;2024-01-25T10:03:34;22.47;;;4.70;;
29500;SDS011;16450;50.288;10.966;2024-01-25T10:06:36;21.97;;;5.07;;
29500;SDS011;16450;50.288;10.966;2024-01-25T10:09:39;19.30;;;4.63;;
29500;SDS011;16450;50.288;10.966;2024-01-25T10:12:42;24.20;;;4.40;;
29500;SDS011;16450;50.288;10.966;2024-01-25T10:15:45;19.57;;;5.03;;
29500;SDS011;16450;50.288;10.966;2024-01-25T10:18:48;21.50;;;4.50;;
29500;SDS011;16450;50.288;10.966;2024-01-25T10:21:52;18.00;;;4.87;;
29500;SDS011;16450;50.288;10.966;2024-01-25T10:24:54;15.70;;;4.20;;
29500;SDS011;16450;50.288;10.966;2024-01-25T10:27:57;16.97;;;4.37;;
29500;SDS011;16450;50.288;10.966;2024-01-25T10:31:01;17.27;;;4.27;;
29500;SDS011;16450;50.288;10.966;2024-01-25T10:34:07;21.67;;;4.60;;
29500;SDS011;16450;50.288;10.966;2024-01-25T10:37:15;15.03;;;3.77;;
29500;SDS011;16450;50.288;10.966;2024-01-25T10:40:18;15.63;;;3.80;;
29500;SDS011;16450;50.288;10.966;2024-01-25T10:43:21;16.40;;;3.70;;
29500;SDS011;16450;50.288;10.966;2024-01-25T10:46:23;24.30;;;4.27;;
29500;SDS011;16450;50.288;10.966;2024-01-25T10:49:26;20.33;;;3.93;;
29500;SDS011;16450;50.288;10.966;2024-01-25T10:52:30;21.73;;;4.50;;
29500;SDS011;16450;50.288;10.966;2024-01-25T10:55:33;21.23;;;4.20;;
29500;SDS011;16450;50.288;10.966;2024-01-25T10:58:36;15.43;;;4.20;;
29500;SDS011;16450;50.288;10.966;2024-01-25T11:01:45;13.47;;;3.57;;
29500;SDS011;16450;50.288;10.966;2024-01-25T11:04:54;17.23;;;3.70;;
29500;SDS011;16450;50.288;10.966;2024-01-25T11:07:57;15.10;;;3.47;;
29500;SDS011;16450;50.288;10.966;2024-01-25T11:10:59;12.97;;;3.33;;
29500;SDS011;16450;50.288;10.966;2024-01-25T11:14:01;14.70;;;3.13;;
29500;SDS011;16450;50.288;10.966;2024-01-25T11:17:19;17.47;;;3.40;;
29500;SDS011;16450;50.288;10.966;2024-01-25T11:20:25;17.27;;;3.33;;
29500;SDS011;16450;50.288;10.966;2024-01-25T11:23:31;13.07;;;3.20;;
29500;SDS011;16450;50.288;10.966;2024-01-25T11:26:33;14.30;;;3.40;;
29500;SDS011;16450;50.288;10.966;2024-01-25T11:29:35;12.47;;;3.20;;
29500;SDS011;16450;50.288;10.966;2024-01-25T11:32:42;17.40;;;3.30;;
29500;SDS011;16450;50.288;10.966;2024-01-25T11:35:53;16.20;;;3.57;;
29500;SDS011;16450;50.288;10.966;2024-01-25T11:38:56;15.57;;;3.23;;
29500;SDS011;16450;50.288;10.966;2024-01-25T11:41:59;13.20;;;3.40;;
29500;SDS011;16450;50.288;10.966;2024-01-25T11:45:01;19.10;;;3.90;;
29500;SDS011;16450;50.288;10.966;2024-01-25T11:48:03;15.67;;;3.30;;
29500;SDS011;16450;50.288;10.966;2024-01-25T11:51:05;12.53;;;3.20;;
29500;SDS011;16450;50.288;10.966;2024-01-25T11:54:07;21.87;;;4.17;;
29500;SDS011;16450;50.288;10.966;2024-01-25T11:57:09;14.07;;;3.00;;
29500;SDS011;16450;50.288;10.966;2024-01-25T12:00:14;13.83;;;3.27;;
29500;SDS011;16450;50.288;10.966;2024-01-25T12:03:17;14.60;;;3.50;;
29500;SDS011;16450;50.288;10.966;2024-01-25T12:06:19;16.57;;;3.40;;
29500;SDS011;16450;50.288;10.966;2024-01-25T12:09:22;15.03;;;3.20;;
29500;SDS011;16450;50.288;10.966;2024-01-25T12:12:24;18.27;;;3.70;;
29500;SDS011;16450;50.288;10.966;2024-01-25T12:15:26;18.43;;;3.47;;
29500;SDS011;16450;50.288;10.966;2024-01-25T12:18:28;16.73;;;3.43;;
29500;SDS011;16450;50.288;10.966;2024-01-25T12:21:32;18.23;;;3.87;;
29500;SDS011;16450;50.288;10.966;2024-01-25T12:24:35;15.43;;;3.50;;
29500;SDS011;16450;50.288;10.966;2024-01-25T12:27:37;16.60;;;3.47;;
29500;SDS011;16450;50.288;10.966;2024-01-25T12:30:42;19.10;;;3.30;;
29500;SDS011;16450;50.288;10.966;2024-01-25T12:33:45;15.37;;;3.30;;
29500;SDS011;16450;50.288;10.966;2024-01-25T12:36:47;19.23;;;3.47;;
29500;SDS011;16450;50.288;10.966;2024-01-25T12:39:51;12.53;;;2.97;;
29500;SDS011;16450;50.288;10.966;2024-01-25T12:42:53;21.73;;;3.87;;
29500;SDS011;16450;50.288;10.966;2024-01-25T12:45:55;15.57;;;3.13;;
29500;SDS011;16450;50.288;10.966;2024-01-25T12:49:09;15.37;;;3.63;;
29500;SDS011;16450;50.288;10.966;2024-01-25T12:52:12;11.70;;;3.03;;
29500;SDS011;16450;50.288;10.966;2024-01-25T12:55:15;19.50;;;3.30;;
29500;SDS011;16450;50.288;10.966;2024-01-25T12:58:17;11.20;;;3.73;;
29500;SDS011;16450;50.288;10.966;2024-01-25T13:01:19;17.47;;;3.30;;
29500;SDS011;16450;50.288;10.966;2024-01-25T13:04:22;19.13;;;3.23;;
29500;SDS011;16450;50.288;10.966;2024-01-25T13:07:25;15.57;;;3.90;;
29500;SDS011;16450;50.288;10.966;2024-01-25T13:10:27;14.20;;;3.20;;
29500;SDS011;16450;50.288;10.966;2024-01-25T13:13:29;16.87;;;3.40;;
29500;SDS011;16450;50.288;10.966;2024-01-25T13:16:30;13.80;;;3.00;;
29500;SDS011;16450;50.288;10.966;2024-01-25T13:19:33;16.67;;;3.30;;
29500;SDS011;16450;50.288;10.966;2024-01-25T13:22:35;11.37;;;2.90;;
29500;SDS011;16450;50.288;10.966;2024-01-25T13:25:37;13.27;;;3.30;;
29500;SDS011;16450;50.288;10.966;2024-01-25T13:28:39;20.77;;;3.30;;
29500;SDS011;16450;50.288;10.966;2024-01-25T13:31:41;12.37;;;3.40;;
29500;SDS011;16450;50.288;10.966;2024-01-25T13:34:43;15.53;;;3.70;;
29500;SDS011;16450;50.288;10.966;2024-01-25T13:37:45;17.83;;;3.40;;
29500;SDS011;16450;50.288;10.966;2024-01-25T13:40:47;13.47;;;3.13;;
29500;SDS011;16450;50.288;10.966;2024-01-25T13:43:52;14.43;;;3.33;;
29500;SDS011;16450;50.288;10.966;2024-01-25T13:46:54;17.00;;;3.40;;
29500;SDS011;16450;50.288;10.966;2024-01-25T13:49:58;15.10;;;3.60;;
29500;SDS011;16450;50.288;10.966;2024-01-25T13:53:00;9.63;;;2.67;;
29500;SDS011;16450;50.288;10.966;2024-01-25T13:56:02;13.90;;;3.10;;
29500;SDS011;16450;50.288;10.966;2024-01-25T13:59:05;17.90;;;3.20;;
29500;SDS011;16450;50.288;10.966;2024-01-25T14:02:07;18.27;;;3.67;;
29500;SDS011;16450;50.288;10.966;2024-01-25T14:05:09;18.53;;;3.23;;
29500;SDS011;16450;50.288;10.966;2024-01-25T14:08:14;15.93;;;3.10;;
29500;SDS011;16450;50.288;10.966;2024-01-25T14:11:16;15.90;;;3.50;;
29500;SDS011;16450;50.288;10.966;2024-01-25T14:14:18;17.20;;;3.03;;
29500;SDS011;16450;50.288;10.966;2024-01-25T14:17:20;17.73;;;4.10;;
29500;SDS011;16450;50.288;10.966;2024-01-25T14:20:23;15.00;;;3.00;;
29500;SDS011;16450;50.288;10.966;2024-01-25T14:23:25;20.33;;;3.53;;
29500;SDS011;16450;50.288;10.966;2024-01-25T14:26:29;15.87;;;3.30;;
29500;SDS011;16450;50.288;10.966;2024-01-25T14:29:31;15.00;;;3.20;;
29500;SDS011;16450;50.288;10.966;2024-01-25T14:32:35;16.47;;;2.73;;
29500;SDS011;16450;50.288;10.966;2024-01-25T14:35:37;21.30;;;3.73;;
29500;SDS011;16450;50.288;10.966;2024-01-25T14:38:39;20.23;;;4.07;;
29500;SDS011;16450;50.288;10.966;2024-01-25T14:41:43;15.43;;;3.20;;
29500;SDS011;16450;50.288;10.966;2024-01-25T14:44:48;14.20;;;3.07;;
29500;SDS011;16450;50.288;10.966;2024-01-25T14:47:50;17.17;;;3.30;;
29500;SDS011;16450;50.288;10.966;2024-01-25T14:50:52;16.47;;;3.40;;
29500;SDS011;16450;50.288;10.966;2024-01-25T14:53:54;15.27;;;3.03;;
29500;SDS011;16450;50.288;10.966;2024-01-25T14:56:56;13.93;;;3.20;;
29500;SDS011;16450;50.288;10.966;2024-01-25T14:59:58;15.97;;;2.93;;
29500;SDS011;16450;50.288;10.966;2024-01-25T15:03:00;12.53;;;3.00;;
29500;SDS011;16450;50.288;10.966;2024-01-25T15:06:02;15.57;;;3.50;;
29500;SDS011;16450;50.288;10.966;2024-01-25T15:09:04;18.77;;;3.80;;
29500;SDS011;16450;50.288;10.966;2024-01-25T15:12:08;20.10;;;3.20;;
29500;SDS011;16450;50.288;10.966;2024-01-25T15:15:10;15.90;;;3.03;;
29500;SDS011;16450;50.288;10.966;2024-01-25T15:18:12;13.97;;;3.73;;
29500;SDS011;16450;50.288;10.966;2024-01-25T15:21:14;14.63;;;3.20;;
29500;SDS011;16450;50.288;10.966;2024-01-25T15:24:16;13.60;;;3.53;;
29500;SDS011;16450;50.288;10.966;2024-01-25T15:27:18;15.13;;;3.87;;
29500;SDS011;16450;50.288;10.966;2024-01-25T15:30:20;24.47;;;5.13;;
29500;SDS011;16450;50.288;10.966;2024-01-25T15:33:22;17.33;;;4.00;;
29500;SDS011;16450;50.288;10.966;2024-01-25T15:36:25;22.17;;;4.40;;
29500;SDS011;16450;50.288;10.966;2024-01-25T15:39:26;17.67;;;4.27;;
29500;SDS011;16450;50.288;10.966;2024-01-25T15:42:28;19.00;;;4.70;;
29500;SDS011;16450;50.288;10.966;2024-01-25T15:45:32;21.73;;;4.77;;
29500;SDS011;16450;50.288;10.966;2024-01-25T15:48:34;23.07;;;4.37;;
29500;SDS011;16450;50.288;10.966;2024-01-25T15:51:36;21.43;;;4.80;;
29500;SDS011;16450;50.288;10.966;2024-01-25T15:54:38;15.00;;;4.37;;
29500;SDS011;16450;50.288;10.966;2024-01-25T15:57:40;18.43;;;4.53;;
29500;SDS011;16450;50.288;10.966;2024-01-25T16:00:42;18.50;;;4.00;;
29500;SDS011;16450;50.288;10.966;2024-01-25T16:03:44;25.57;;;4.43;;
29500;SDS011;16450;50.288;10.966;2024-01-25T16:06:46;21.97;;;4.70;;
29500;SDS011;16450;50.288;10.966;2024-01-25T16:09:48;14.87;;;4.40;;
29500;SDS011;16450;50.288;10.966;2024-01-25T16:12:50;25.10;;;9.53;;
29500;SDS011;16450;50.288;10.966;2024-01-25T16:15:52;33.73;;;14.43;;
29500;SDS011;16450;50.288;10.966;2024-01-25T16:18:54;33.57;;;12.90;;
29500;SDS011;16450;50.288;10.966;2024-01-25T16:21:56;22.70;;;8.43;;
29500;SDS011;16450;50.288;10.966;2024-01-25T16:24:58;21.47;;;5.63;;
29500;SDS011;16450;50.288;10.966;2024-01-25T16:28:01;23.03;;;5.67;;
29500;SDS011;16450;50.288;10.966;2024-01-25T16:31:02;19.80;;;5.83;;
29500;SDS011;16450;50.288;10.966;2024-01-25T16:34:04;20.53;;;5.63;;
29500;SDS011;16450;50.288;10.966;2024-01-25T16:37:07;20.33;;;5.83;;
29500;SDS011;16450;50.288;10.966;2024-01-25T16:40:09;26.60;;;10.43;;
29500;SDS011;16450;50.288;10.966;2024-01-25T16:43:11;25.87;;;7.30;;
29500;SDS011;16450;50.288;10.966;2024-01-25T16:46:13;20.17;;;6.30;;
29500;SDS011;16450;50.288;10.966;2024-01-25T16:49:15;29.13;;;7.03;;
29500;SDS011;16450;50.288;10.966;2024-01-25T16:52:17;20.23;;;6.80;;
29500;SDS011;16450;50.288;10.966;2024-01-25T16:55:18;20.20;;;6.37;;
29500;SDS011;16450;50.288;10.966;2024-01-25T16:58:20;25.50;;;6.53;;
29500;SDS011;16450;50.288;10.966;2024-01-25T17:01:22;22.97;;;6.70;;
29500;SDS011;16450;50.288;10.966;2024-01-25T17:04:24;25.77;;;5.97;;
29500;SDS011;16450;50.288;10.966;2024-01-25T17:07:26;21.87;;;5.47;;
29500;SDS011;16450;50.288;10.966;2024-01-25T17:10:28;18.10;;;5.53;;
29500;SDS011;16450;50.288;10.966;2024-01-25T17:13:30;23.07;;;5.33;;
29500;SDS011;16450;50.288;10.966;2024-01-25T17:16:32;18.40;;;5.87;;
29500;SDS011;16450;50.288;10.966;2024-01-25T17:19:34;20.80;;;4.77;;
29500;SDS011;16450;50.288;10.966;2024-01-25T17:22:36;15.60;;;5.07;;
29500;SDS011;16450;50.288;10.966;2024-01-25T17:25:39;23.50;;;5.77;;
29500;SDS011;16450;50.288;10.966;2024-01-25T17:28:41;24.63;;;5.50;;
29500;SDS011;16450;50.288;10.966;2024-01-25T17:31:43;20.57;;;6.63;;
29500;SDS011;16450;50.288;10.966;2024-01-25T17:34:45;27.67;;;7.10;;
29500;SDS011;16450;50.288;10.966;2024-01-25T17:37:47;24.77;;;7.67;;
29500;SDS011;16450;50.288;10.966;2024-01-25T17:40:48;25.17;;;7.53;;
29500;SDS011;16450;50.288;10.966;2024-01-25T17:43:50;33.07;;;13.50;;
29500;SDS011;16450;50.288;10.966;2024-01-25T17:46:52;115.17;;;44.37;;